createdAt,value
2019-01-16T00:02:00.995Z,15.30
2019-01-16T00:07:23.764Z,14.80
2019-01-16T00:12:46.515Z,15.30
2019-01-16T00:18:03.375Z,15.43
2019-01-16T00:23:24.892Z,15.07
2019-01-16T00:28:50.767Z,15.77
2019-01-16T00:34:19.283Z,14.80
2019-01-16T00:39:40.682Z,14.30
2019-01-16T00:45:03.399Z,13.80
2019-01-16T00:50:29.587Z,12.97
2019-01-16T00:55:47.478Z,12.37
2019-01-16T01:01:13.072Z,11.70
2019-01-16T01:06:41.878Z,12.80
2019-01-16T01:11:54.577Z,11.53
2019-01-16T01:17:26.597Z,11.17
2019-01-16T01:22:52.602Z,12.17
2019-01-16T01:28:04.619Z,11.80
2019-01-16T01:33:39.702Z,12.27
2019-01-16T01:39:14.187Z,11.83
2019-01-16T01:44:36.613Z,11.40
2019-01-16T01:50:03.810Z,10.97
2019-01-16T01:55:25.082Z,11.93
2019-01-16T02:00:54.268Z,10.43
2019-01-16T02:06:26.130Z,10.20
2019-01-16T02:11:42.901Z,10.47
2019-01-16T02:17:04.326Z,10.67
2019-01-16T02:22:30.166Z,10.17
2019-01-16T02:27:53.763Z,11.40
2019-01-16T02:33:16.583Z,10.57
2019-01-16T02:38:44.498Z,10.83
2019-01-16T02:44:16.495Z,10.97
2019-01-16T02:49:32.814Z,10.57
2019-01-16T02:54:56.903Z,10.93
2019-01-16T03:00:06.237Z,10.03
2019-01-16T03:05:28.135Z,10.03
2019-01-16T03:10:40.933Z,9.83
2019-01-16T03:16:06.623Z,9.93
2019-01-16T03:21:32.153Z,10.00
2019-01-16T03:26:54.969Z,9.67
2019-01-16T03:32:17.789Z,9.63
2019-01-16T03:37:40.623Z,9.30
2019-01-16T03:43:03.435Z,9.87
2019-01-16T03:48:31.992Z,9.10
2019-01-16T03:53:53.563Z,9.47
2019-01-16T03:59:15.141Z,9.23
2019-01-16T04:04:35.265Z,9.93
2019-01-16T04:10:04.333Z,8.93
2019-01-16T04:15:33.813Z,8.70
2019-01-16T04:21:02.730Z,8.63
2019-01-16T04:26:28.470Z,9.53
2019-01-16T04:31:51.303Z,9.53
2019-01-16T04:37:14.822Z,10.03
2019-01-16T04:42:25.471Z,9.30
2019-01-16T04:47:43.478Z,9.10
2019-01-16T04:53:05.108Z,8.57
2019-01-16T04:58:26.908Z,7.90
2019-01-16T05:03:52.667Z,8.63
2019-01-16T05:09:21.448Z,7.90
2019-01-16T05:14:42.377Z,8.37
2019-01-16T05:20:04.056Z,7.53
2019-01-16T05:25:17.931Z,7.77
2019-01-16T05:30:39.464Z,7.50
2019-01-16T05:36:08.248Z,7.37
2019-01-16T05:41:34.061Z,7.27
2019-01-16T05:47:02.572Z,6.80
2019-01-16T05:52:34.606Z,7.13
2019-01-16T05:57:56.910Z,6.57
2019-01-16T06:03:20.859Z,6.70
2019-01-16T06:08:52.425Z,6.50
2019-01-16T06:14:33.342Z,5.93
2019-01-16T06:20:01.963Z,5.50
2019-01-16T06:25:33.706Z,6.00
2019-01-16T06:30:56.493Z,5.73
2019-01-16T06:36:19.253Z,5.20
2019-01-16T06:41:32.701Z,4.57
2019-01-16T06:47:01.819Z,5.03
2019-01-16T06:52:33.611Z,4.83
2019-01-16T06:57:56.391Z,4.47
2019-01-16T07:03:17.616Z,4.87
2019-01-16T07:08:40.526Z,4.03
2019-01-16T07:14:12.173Z,4.13
2019-01-16T07:19:27.666Z,3.60
2019-01-16T07:24:49.258Z,4.07
2019-01-16T07:30:10.722Z,3.50
2019-01-16T07:35:32.497Z,3.87
2019-01-16T07:40:53.992Z,3.80
2019-01-16T07:46:15.953Z,3.93
2019-01-16T07:51:37.331Z,3.93
2019-01-16T07:57:02.922Z,3.47
2019-01-16T08:02:40.783Z,3.27
2019-01-16T08:08:05.503Z,3.70
2019-01-16T08:13:27.107Z,3.60
2019-01-16T08:18:53.484Z,3.93
2019-01-16T08:24:19.239Z,4.43
2019-01-16T08:29:39.199Z,5.03
2019-01-16T08:34:57.261Z,5.60
2019-01-16T08:40:24.577Z,5.30
2019-01-16T08:45:53.451Z,5.73
2019-01-16T08:51:12.006Z,7.33
2019-01-16T08:56:37.775Z,7.23
2019-01-16T09:02:03.589Z,8.30
2019-01-16T09:07:24.975Z,7.00
2019-01-16T09:12:46.503Z,9.67
2019-01-16T09:18:15.280Z,11.53
2019-01-16T09:23:37.659Z,12.37
2019-01-16T09:29:18.623Z,12.23
2019-01-16T09:34:40.210Z,13.03
2019-01-16T09:40:01.411Z,13.27
2019-01-16T09:45:24.774Z,12.90
2019-01-16T09:50:56.914Z,13.73
2019-01-16T09:56:19.679Z,13.77
2019-01-16T10:01:57.361Z,13.50
2019-01-16T10:07:18.814Z,12.30
2019-01-16T10:12:50.632Z,12.33
2019-01-16T10:18:04.892Z,12.10
2019-01-16T10:23:45.755Z,11.53
2019-01-16T10:29:17.534Z,10.10
2019-01-16T10:34:39.079Z,9.93
2019-01-16T10:40:14.174Z,9.53
2019-01-16T10:45:39.080Z,8.80
2019-01-16T10:51:07.082Z,9.27
2019-01-16T10:56:35.786Z,8.67
2019-01-16T11:01:58.576Z,8.20
2019-01-16T11:07:29.990Z,7.13
2019-01-16T11:13:02.573Z,7.67
2019-01-16T11:18:28.004Z,7.10
2019-01-16T11:23:49.504Z,6.43
2019-01-16T11:29:10.740Z,7.03
2019-01-16T11:34:32.298Z,7.77
2019-01-16T11:39:53.747Z,7.00
2019-01-16T11:45:34.723Z,6.53
2019-01-16T11:51:03.091Z,6.43
2019-01-16T11:56:29.782Z,6.97
2019-01-16T12:01:47.990Z,6.57
2019-01-16T12:07:13.265Z,6.90
2019-01-16T12:12:37.624Z,6.73
2019-01-16T12:17:58.823Z,6.17
2019-01-16T12:23:24.495Z,6.37
2019-01-16T12:28:46.467Z,6.53
2019-01-16T12:34:08.022Z,6.30
2019-01-16T12:39:30.767Z,6.97
2019-01-16T12:44:59.339Z,6.37
2019-01-16T12:50:20.963Z,6.67
2019-01-16T12:55:42.461Z,7.37
2019-01-16T13:01:14.670Z,6.80
2019-01-16T13:06:36.533Z,7.45
2019-01-16T13:12:14.653Z,7.17
2019-01-16T13:17:37.488Z,7.50
2019-01-16T13:22:51.548Z,6.90
2019-01-16T13:28:13.020Z,7.03
2019-01-16T13:33:25.714Z,6.83
2019-01-16T13:38:51.457Z,6.97
2019-01-16T13:44:14.232Z,6.73
2019-01-16T13:49:50.617Z,7.63
2019-01-16T13:55:14.080Z,6.17
2019-01-16T14:00:35.050Z,7.73
2019-01-16T14:05:57.061Z,6.80
2019-01-16T14:11:37.776Z,6.33
2019-01-16T14:17:00.565Z,5.57
2019-01-16T14:22:41.513Z,7.10
2019-01-16T14:27:58.836Z,5.53
2019-01-16T14:33:10.825Z,5.60
2019-01-16T14:38:33.609Z,5.80
2019-01-16T14:44:02.313Z,5.73
2019-01-16T14:49:40.546Z,5.50
2019-01-16T14:55:06.358Z,5.90
2019-01-16T15:00:29.832Z,5.47
2019-01-16T15:05:55.954Z,6.10
2019-01-16T15:11:25.831Z,5.80
2019-01-16T15:16:44.695Z,5.40
2019-01-16T15:21:59.467Z,5.50
2019-01-16T15:27:21.436Z,5.47
2019-01-16T15:32:50.638Z,4.80
2019-01-16T15:38:12.715Z,6.20
2019-01-16T15:43:41.607Z,5.40
2019-01-16T15:49:04.418Z,5.57
2019-01-16T15:54:30.365Z,6.07
2019-01-16T15:59:59.839Z,5.60
2019-01-16T16:05:22.805Z,5.47
2019-01-16T16:10:50.654Z,6.20
2019-01-16T16:16:12.705Z,5.63
2019-01-16T16:21:35.556Z,5.40
2019-01-16T16:27:13.810Z,5.17
2019-01-16T16:32:26.878Z,6.05
2019-01-16T16:37:48.461Z,5.43
2019-01-16T16:43:14.003Z,5.53
2019-01-16T16:48:34.878Z,5.47
2019-01-16T16:53:56.237Z,6.30
2019-01-16T16:59:17.390Z,5.97
2019-01-16T17:04:43.232Z,5.03
2019-01-16T17:10:12.226Z,6.23
2019-01-16T17:15:34.109Z,6.10
2019-01-16T17:20:56.838Z,5.73
2019-01-16T17:26:24.740Z,6.17
2019-01-16T17:31:56.407Z,6.07
2019-01-16T17:37:21.852Z,5.23
2019-01-16T17:42:50.548Z,5.43
2019-01-16T17:48:22.242Z,5.23
2019-01-16T17:53:54.038Z,5.10
2019-01-16T17:59:15.757Z,5.67
2019-01-16T18:04:50.542Z,5.30
2019-01-16T18:10:16.211Z,6.03
2019-01-16T18:15:37.748Z,5.80
2019-01-16T18:20:56.202Z,5.93
2019-01-16T18:26:34.073Z,5.67
2019-01-16T18:32:05.738Z,6.53
2019-01-16T18:37:19.494Z,6.90
2019-01-16T18:42:45.289Z,7.70
2019-01-16T18:48:06.911Z,7.80
2019-01-16T18:53:32.748Z,8.03
2019-01-16T18:58:52.075Z,8.70
2019-01-16T19:04:14.873Z,8.50
2019-01-16T19:09:42.206Z,9.40
2019-01-16T19:15:17.165Z,9.30
2019-01-16T19:20:51.725Z,8.70
2019-01-16T19:26:26.392Z,7.93
2019-01-16T19:31:54.806Z,7.80
2019-01-16T19:37:20.443Z,8.73
2019-01-16T19:42:55.389Z,8.17
2019-01-16T19:48:16.346Z,8.03
2019-01-16T19:53:39.091Z,7.70
2019-01-16T19:59:04.406Z,9.03
2019-01-16T20:04:33.206Z,9.27
2019-01-16T20:09:46.334Z,8.47
2019-01-16T20:15:12.996Z,8.20
2019-01-16T20:20:50.598Z,9.30
2019-01-16T20:26:16.074Z,8.87
2019-01-16T20:31:47.935Z,9.67
2019-01-16T20:37:09.487Z,9.17
2019-01-16T20:42:32.767Z,9.43
2019-01-16T20:47:53.969Z,8.47
2019-01-16T20:53:17.594Z,10.40
2019-01-16T20:58:43.010Z,9.67
2019-01-16T21:04:20.976Z,10.47
2019-01-16T21:09:49.900Z,11.10
2019-01-16T21:15:21.335Z,10.43
2019-01-16T21:20:43.445Z,11.27
2019-01-16T21:26:21.307Z,10.93
2019-01-16T21:31:48.255Z,10.57
2019-01-16T21:37:05.800Z,11.30
2019-01-16T21:42:28.545Z,10.80
2019-01-16T21:48:09.521Z,11.57
2019-01-16T21:53:30.424Z,11.80
2019-01-16T21:58:50.283Z,10.93
2019-01-16T22:04:07.020Z,10.57
2019-01-16T22:09:28.722Z,10.57
2019-01-16T22:14:51.526Z,10.83
2019-01-16T22:20:02.853Z,10.23
2019-01-16T22:25:24.490Z,11.03
2019-01-16T22:31:05.634Z,11.60
2019-01-16T22:36:31.300Z,11.53
2019-01-16T22:41:59.612Z,11.90
2019-01-16T22:47:29.986Z,12.00
2019-01-16T22:52:50.964Z,13.27
2019-01-16T22:58:08.830Z,13.23
2019-01-16T23:03:38.739Z,13.67
2019-01-16T23:08:54.983Z,12.33
2019-01-16T23:14:36.203Z,12.80
2019-01-16T23:19:57.493Z,13.33
2019-01-16T23:25:26.362Z,12.27
2019-01-16T23:30:47.038Z,13.73
2019-01-16T23:36:04.977Z,13.83
2019-01-16T23:41:13.769Z,14.10
2019-01-16T23:46:35.421Z,14.40
2019-01-16T23:51:57.633Z,13.83
2019-01-16T23:57:19.308Z,14.30
